Bookmark and Share
Track history (hours):
 

Hamnavoe

Operator: NorthLink Orkey & Shetland Ferries Ltd

Last reported at 2014-Apr-19 21:31 UTC. Time now 2014-Apr-19 22:11 UTC.
Position N 58°58' W 003°18'.

Length 112 m; draft 4.4 m.

Type: Ship. MMSI: 235449000.

NotesDate/timePositionNaut miles runAvg speedWind from/ knotsBaromVisibWave heightAir tempDewpointWater temp
2014-Apr-19 21:31N 58°58' W 003°18'0 0.0
2014-Apr-19 20:31N 58°58' W 003°18'0 0.0
2014-Apr-19 19:33N 58°58' W 003°18'1211.6
2014-Apr-19 18:33N 58°48' W 003°29'1110.5
2014-Apr-19 17:29N 58°37' W 003°32'1112.3
2014-Apr-19 16:34N 58°48' W 003°29'1210.5
2014-Apr-19 15:27N 58°58' W 003°18'0 0.0
2014-Apr-19 14:33N 58°58' W 003°18'0 0.0
2014-Apr-19 13:20N 58°58' W 003°18'0 0.0
2014-Apr-19 12:31N 58°58' W 003°18'1111.7
2014-Apr-19 11:33N 58°48' W 003°29'1211.7
2014-Apr-19 10:33N 58°37' W 003°32'0 0.0
2014-Apr-19 09:33N 58°37' W 003°32'1616.2
2014-Apr-19 08:33N 58°53' W 003°28'7 7.2
2014-Apr-19 07:31N 58°58' W 003°18'0 0.0
2014-Apr-19 06:31N 58°58' W 003°18'0 0.0
2014-Apr-19 05:25N 58°58' W 003°18'0 0.0
2014-Apr-19 04:31N 58°58' W 003°18'0 0.0
2014-Apr-19 03:31N 58°58' W 003°18'0 0.0
2014-Apr-19 02:31N 58°58' W 003°18'0 0.0
2014-Apr-19 01:31N 58°58' W 003°18'0 0.0
2014-Apr-19 00:31N 58°58' W 003°18'0 0.0
2014-Apr-18 23:31N 58°58' W 003°18'0 0.0
2014-Apr-18 22:31N 58°58' W 003°18'0 0.0
2014-Apr-18 21:31N 58°58' W 003°18'0 0.0
2014-Apr-18 20:31N 58°58' W 003°18'0 0.0
2014-Apr-18 19:33N 58°58' W 003°18'1414.1
2014-Apr-18 18:34N 58°45' W 003°30'8 5.4
2014-Apr-18 17:05N 58°37' W 003°32'1018.1
2014-Apr-18 16:33N 58°47' W 003°32'1310.9
2014-Apr-18 15:22N 58°58' W 003°18'0 0.0
2014-Apr-18 14:30N 58°58' W 003°18'0 0.0
2014-Apr-18 10:32N 58°58' W 003°18'0 0.0
2014-Apr-18 09:30N 58°58' W 003°18'9 9.7
2014-Apr-18 08:33N 58°51' W 003°28'6 3.0
2014-Apr-18 06:34N 58°45' W 003°30'1414.4
2014-Apr-18 05:34N 58°58' W 003°18'0 0.2
2014-Apr-18 04:26N 58°58' W 003°18'0 0.0
2014-Apr-18 03:26N 58°58' W 003°18'0 0.0
2014-Apr-18 02:32N 58°58' W 003°18'0 0.0
2014-Apr-18 01:32N 58°58' W 003°18'0 0.0
2014-Apr-18 00:32N 58°58' W 003°18'0 0.0
2014-Apr-17 23:32N 58°58' W 003°18'0 0.0
2014-Apr-17 22:32N 58°58' W 003°18'0 0.0
2014-Apr-17 21:26N 58°58' W 003°18'0 0.0
2014-Apr-17 20:32N 58°58' W 003°18'2 1.6
2014-Apr-17 19:33N 58°57' W 003°16'1414.3
2014-Apr-17 18:33N 58°42' W 003°16'1010.2
2014-Apr-17 17:33N 58°37' W 003°32'1312.7
2014-Apr-17 16:33N 58°49' W 003°31'1111.0
2014-Apr-17 15:33N 58°58' W 003°18'0 0.0
2014-Apr-17 14:33N 58°58' W 003°18'0 0.0
2014-Apr-17 13:30N 58°58' W 003°18'0 0.0
2014-Apr-17 12:33N 58°58' W 003°18'0 0.0
2014-Apr-17 11:33N 58°58' W 003°18'0 0.0
2014-Apr-17 10:30N 58°58' W 003°18'0 0.0
2014-Apr-17 09:33N 58°58' W 003°18'1212.4
2014-Apr-17 08:33N 58°46' W 003°10'1510.4
2014-Apr-17 07:05N 58°37' W 003°32'916.5
2014-Apr-17 06:33N 58°45' W 003°31'1313.3
2014-Apr-17 05:33N 58°57' W 003°18'1 0.8
2014-Apr-17 04:22N 58°58' W 003°18'0 0.0
2014-Apr-17 03:28N 58°58' W 003°18'0 0.0
2014-Apr-17 01:10N 58°58' W 003°18'0 0.0
2014-Apr-16 19:32N 58°58' W 003°18'1111.5
2014-Apr-16 18:33N 58°48' W 003°29'1211.0
2014-Apr-16 17:29N 58°37' W 003°32'1112.3
2014-Apr-16 16:33N 58°48' W 003°30'12 5.6
2014-Apr-16 14:27N 58°58' W 003°18'0 0.0
2014-Apr-16 09:14N 58°58' W 003°18'812.5
2014-Apr-16 08:33N 58°51' W 003°28'1510.1
2014-Apr-16 07:05N 58°37' W 003°32'916.3
2014-Apr-16 06:33N 58°45' W 003°30'1414.2
2014-Apr-16 05:34N 58°58' W 003°18'0 0.0
2014-Apr-16 04:31N 58°58' W 003°18'0 0.0
2014-Apr-16 03:33N 58°58' W 003°18'0 0.0
2014-Apr-16 02:33N 58°58' W 003°18'0 0.0
2014-Apr-16 01:34N 58°58' W 003°18'0 0.0
2014-Apr-16 00:33N 58°58' W 003°18'0 0.0
2014-Apr-15 23:33N 58°58' W 003°18'0 0.0
2014-Apr-15 22:33N 58°58' W 003°18'0 0.0
2014-Apr-15 21:34N 58°58' W 003°18'0 0.0
2014-Apr-15 20:33N 58°58' W 003°18'0 0.0
2014-Apr-15 19:28N 58°58' W 003°18'1112.4
2014-Apr-15 18:33N 58°48' W 003°30'1 0.4
2014-Apr-15 16:33N 58°48' W 003°29'1211.9
2014-Apr-15 15:33N 58°58' W 003°18'7 0.9
2014-Apr-15 07:34N 58°52' W 003°28'8 4.2
2014-Apr-15 05:34N 58°44' W 003°31'15 7.5
2014-Apr-15 03:33N 58°58' W 003°18'0 0.0
2014-Apr-15 02:33N 58°58' W 003°18'0 0.0
2014-Apr-15 01:33N 58°58' W 003°18'0 0.0
2014-Apr-15 00:33N 58°58' W 003°18'0 0.0
2014-Apr-14 23:30N 58°58' W 003°18'0 0.0
2014-Apr-14 22:33N 58°58' W 003°18'0 0.0
2014-Apr-14 21:33N 58°58' W 003°18'0 0.0
2014-Apr-14 20:33N 58°58' W 003°18'0 0.0
2014-Apr-14 19:33N 58°58' W 003°18'0 0.0
2014-Apr-14 18:32N 58°58' W 003°18'1313.4
2014-Apr-14 17:33N 58°47' W 003°30'1 0.6
2014-Apr-14 15:34N 58°48' W 003°29'12 1.7
2014-Apr-14 08:33N 58°58' W 003°18'1212.1
2014-Apr-14 07:33N 58°47' W 003°08'1616.1
2014-Apr-14 06:33N 58°37' W 003°32'8 7.9
2014-Apr-14 05:33N 58°44' W 003°30'15 2.0
2014-Apr-13 22:19N 58°58' W 003°18'0 0.0
2014-Apr-13 21:31N 58°58' W 003°18'0 0.0
2014-Apr-13 20:31N 58°58' W 003°18'1 1.2
2014-Apr-13 19:33N 58°57' W 003°17'1414.0
2014-Apr-13 18:33N 58°43' W 003°19'9 9.3
2014-Apr-13 17:33N 58°37' W 003°32'1211.9
2014-Apr-13 16:33N 58°48' W 003°31'1211.7
2014-Apr-13 15:33N 58°58' W 003°18'0 0.0
2014-Apr-13 14:31N 58°58' W 003°18'0 0.0
2014-Apr-13 13:31N 58°58' W 003°18'2 2.4
2014-Apr-13 12:33N 58°56' W 003°15'1312.2
2014-Apr-13 11:31N 58°44' W 003°20'8 4.2
2014-Apr-13 09:30N 58°38' W 003°32'1718.2
2014-Apr-13 08:33N 58°55' W 003°28'6 6.0
2014-Apr-13 07:32N 58°58' W 003°18'0 0.0
2014-Apr-13 06:32N 58°58' W 003°18'0 0.0
2014-Apr-13 05:32N 58°58' W 003°18'0 0.0
2014-Apr-13 04:32N 58°58' W 003°18'0 0.0
2014-Apr-13 03:32N 58°58' W 003°18'0 0.0
2014-Apr-13 02:29N 58°58' W 003°18'0 0.0
2014-Apr-13 01:32N 58°58' W 003°18'0 0.0
2014-Apr-13 00:32N 58°58' W 003°18'0 0.0
2014-Apr-12 23:29N 58°58' W 003°18'0 0.0
2014-Apr-12 22:32N 58°58' W 003°18'0 0.0
2014-Apr-12 21:32N 58°58' W 003°18'0 0.0
2014-Apr-12 20:32N 58°58' W 003°18'8 8.3
2014-Apr-12 19:33N 58°50' W 003°11'1616.3
2014-Apr-12 18:33N 58°38' W 003°31'1 0.6
2014-Apr-12 17:27N 58°38' W 003°32'1415.7
2014-Apr-12 16:33N 58°52' W 003°31'9 8.6
2014-Apr-12 15:33N 58°58' W 003°18'0 0.0
2014-Apr-12 14:33N 58°58' W 003°18'0 0.0
2014-Apr-12 13:33N 58°58' W 003°18'5 5.0
2014-Apr-12 12:33N 58°54' W 003°12'1313.1
2014-Apr-12 11:33N 58°41' W 003°18'7 3.6
2014-Apr-12 09:34N 58°39' W 003°32'1717.2
2014-Apr-12 08:33N 58°56' W 003°28'5 4.5
2014-Apr-12 07:21N 58°58' W 003°18'0 0.0
2014-Apr-12 06:27N 58°58' W 003°18'0 0.0
2014-Apr-12 04:12N 58°58' W 003°18'0 0.0
2014-Apr-12 03:06N 58°58' W 003°18'0 0.0
2014-Apr-12 02:12N 58°58' W 003°18'0 0.0
2014-Apr-12 01:27N 58°58' W 003°18'0 0.0
2014-Apr-12 00:33N 58°58' W 003°18'0 0.0
2014-Apr-11 23:33N 58°58' W 003°18'0 0.0
2014-Apr-11 22:33N 58°58' W 003°18'0 0.0
2014-Apr-11 21:33N 58°58' W 003°18'0 0.0
2014-Apr-11 20:09N 58°58' W 003°18'0 0.0
2014-Apr-11 19:33N 58°58' W 003°18'1312.6
2014-Apr-11 18:33N 58°47' W 003°29'1010.0
2014-Apr-11 17:32N 58°37' W 003°32'1212.0
2014-Apr-11 16:33N 58°48' W 003°29'1111.2
2014-Apr-11 15:33N 58°58' W 003°18'0 0.0
2014-Apr-11 14:29N 58°58' W 003°18'1 1.1
2014-Apr-11 13:33N 58°57' W 003°17'1616.1
2014-Apr-11 12:33N 58°42' W 003°31'4 3.5
2014-Apr-11 11:20N 58°38' W 003°31'1418.1
2014-Apr-11 10:33N 58°52' W 003°28'8 8.2
2014-Apr-11 09:33N 58°58' W 003°18'9 9.3
2014-Apr-11 08:33N 58°50' W 003°28'6 3.2
2014-Apr-11 06:33N 58°44' W 003°30'1514.8
2014-Apr-11 05:34N 58°57' W 003°18'0 0.4
2014-Apr-11 04:29N 58°58' W 003°18'0 0.0
2014-Apr-11 03:23N 58°58' W 003°18'0 0.0
2014-Apr-11 02:17N 58°58' W 003°18'0 0.0
2014-Apr-11 01:29N 58°58' W 003°18'0 0.0
2014-Apr-11 00:23N 58°58' W 003°18'0 0.0
2014-Apr-10 23:29N 58°58' W 003°18'0 0.0
2014-Apr-10 22:29N 58°58' W 003°18'0 0.0
2014-Apr-10 21:29N 58°58' W 003°18'0 0.0
2014-Apr-10 20:05N 58°58' W 003°18'0 0.2
2014-Apr-10 19:33N 58°58' W 003°18'1514.8
2014-Apr-10 18:33N 58°44' W 003°30'5 2.3
2014-Apr-10 16:33N 58°49' W 003°28'1010.3
2014-Apr-10 15:33N 58°58' W 003°18'0 0.0
2014-Apr-10 11:27N 58°58' W 003°18'0 0.0
2014-Apr-10 10:32N 58°58' W 003°18'0 0.0
2014-Apr-10 09:33N 58°58' W 003°18'8 8.3
2014-Apr-10 08:33N 58°52' W 003°28'1510.7
2014-Apr-10 07:09N 58°37' W 003°32'813.3
2014-Apr-10 06:33N 58°44' W 003°31'1514.6
2014-Apr-10 05:33N 58°57' W 003°18'1 0.5
2014-Apr-10 04:32N 58°58' W 003°18'0 0.0
2014-Apr-10 03:32N 58°58' W 003°18'0 0.0
2014-Apr-10 02:32N 58°58' W 003°18'0 0.0
2014-Apr-10 01:32N 58°58' W 003°18'0 0.0
2014-Apr-10 00:32N 58°58' W 003°18'0 0.0
2014-Apr-09 23:23N 58°58' W 003°18'0 0.0
2014-Apr-09 22:32N 58°58' W 003°18'0 0.0
2014-Apr-09 21:32N 58°58' W 003°18'  

Dump ship's entire track history

sailing weather and tide predictions

Hamnavoe — VSTY7 — position and weather